Time;durP1;ratioP1;P1;durP2;ratioP2;P2;SDS_P1;SDS_P2;PMS_P1;PMS_P2;Temp;Humidity;BMP_temperature;BMP_pressure;BME280_temperature;BME280_humidity;BME280_pressure;Samples;Min_cycle;Max_cycle;Signal;HPM_P1;HPM_P2
2022/08/19 00:00:13;;;;;;;1.30;1.00;;;16.90;1.40;;;17.88;100.00;94914.06;646868;216;31519;-72
2022/08/19 00:02:55;;;;;;;1.37;0.93;;;16.90;1.40;;;17.94;100.00;94922.75;648036;212;31473;-72
2022/08/19 00:05:37;;;;;;;3.90;2.70;;;17.00;1.40;;;18.00;100.00;94918.15;647032;216;33516;-72
2022/08/19 00:08:19;;;;;;;0.70;0.60;;;17.10;1.40;;;18.01;100.00;94908.89;646075;216;31598;-71
2022/08/19 00:11:04;;;;;;;2.67;2.05;;;17.10;1.40;;;18.08;100.00;94910.11;646709;212;31471;-72
2022/08/19 00:13:48;;;;;;;1.62;1.27;;;17.20;1.40;;;18.05;100.00;94909.47;646884;216;31544;-73
2022/08/19 00:16:27;;;;;;;0.90;0.90;;;17.20;1.40;;;18.11;100.00;94908.48;637452;213;32115;-73
2022/08/19 00:19:09;;;;;;;1.92;1.83;;;17.20;1.40;;;18.17;100.00;94914.21;645328;212;31355;-72
2022/08/19 00:21:55;;;;;;;2.20;1.20;;;17.20;1.40;;;18.15;100.00;94906.23;646602;216;31496;-72
2022/08/19 00:24:37;;;;;;;0.70;0.70;;;17.20;1.40;;;18.16;100.00;94903.39;646283;216;32094;-73
2022/08/19 00:27:17;;;;;;;0.77;0.77;;;17.20;1.40;;;18.20;100.00;94893.73;646306;216;42223;-72
2022/08/19 00:29:59;;;;;;;2.05;1.02;;;17.30;1.40;;;18.19;100.00;94883.90;646137;216;31570;-72
2022/08/19 00:32:40;;;;;;;1.23;1.10;;;17.30;1.40;;;18.16;100.00;94877.74;647590;216;32079;-73
2022/08/19 00:35:51;;;;;;;1.90;1.60;;;17.30;1.40;;;18.15;100.00;94879.39;646701;216;31641;-72
2022/08/19 00:38:32;;;;;;;2.00;1.70;;;17.20;1.40;;;18.14;100.00;94876.98;646530;216;31514;-71
2022/08/19 00:41:20;;;;;;;2.37;1.92;;;17.30;1.40;;;18.11;100.00;94882.44;647434;216;32065;-71
2022/08/19 00:44:01;;;;;;;1.40;1.00;;;17.30;1.40;;;18.15;100.00;94884.05;647502;212;31522;-72
2022/08/19 00:46:43;;;;;;;2.58;1.20;;;17.30;1.40;;;18.17;100.00;94886.09;645652;216;31644;-72
2022/08/19 00:49:26;;;;;;;1.70;1.60;;;17.30;1.40;;;18.22;100.00;94876.87;646753;216;42198;-74
2022/08/19 00:52:14;;;;;;;2.10;1.55;;;17.30;1.40;;;18.17;100.00;94871.07;646067;216;31526;-71
2022/08/19 00:54:56;;;;;;;1.30;1.20;;;17.30;1.40;;;18.15;100.00;94865.08;645621;216;31849;-72
2022/08/19 00:57:41;;;;;;;2.80;2.37;;;17.20;1.40;;;18.18;100.00;94866.21;645955;212;32207;-71
2022/08/19 01:00:22;;;;;;;2.25;2.05;;;17.20;1.40;;;18.13;100.00;94871.59;646549;212;31568;-72
2022/08/19 01:03:07;;;;;;;5.60;1.90;;;17.20;1.40;;;18.13;100.00;94876.77;648059;212;32144;-71
2022/08/19 01:05:48;;;;;;;0.73;0.73;;;17.20;1.40;;;18.12;100.00;94883.09;646223;216;32172;-72
2022/08/19 01:08:30;;;;;;;2.90;1.50;;;17.20;1.40;;;18.12;100.00;94879.87;646653;216;32659;-72
2022/08/19 01:11:12;;;;;;;1.40;1.30;;;17.20;1.40;;;18.09;100.00;94869.56;618039;226;32025;-72
2022/08/19 01:13:56;;;;;;;1.58;1.48;;;17.20;1.40;;;18.14;100.00;94855.25;645773;212;31514;-72
2022/08/19 01:16:38;;;;;;;1.90;1.80;;;17.20;1.40;;;18.11;100.00;94849.67;635955;212;31670;-71
2022/08/19 01:19:26;;;;;;;1.83;1.67;;;17.20;1.40;;;18.11;100.00;94854.20;646289;216;42121;-72
2022/08/19 01:22:10;;;;;;;1.20;1.10;;;17.20;1.40;;;18.10;100.00;94869.19;647149;216;31532;-72
2022/08/19 01:24:52;;;;;;;3.30;1.50;;;17.20;1.40;;;18.10;100.00;94876.55;646012;216;31888;-72
2022/08/19 01:27:42;;;;;;;3.75;3.37;;;17.20;1.40;;;18.13;100.00;94872.50;618441;226;31859;-71
2022/08/19 01:30:27;;;;;;;1.40;1.00;;;17.20;1.40;;;18.07;100.00;94871.97;646470;212;31521;-72
2022/08/19 01:35:52;;;;;;;4.03;2.20;;;17.10;1.40;;;18.06;100.00;94873.91;646889;212;31604;-71
2022/08/19 01:38:34;;;;;;;3.33;2.62;;;17.10;1.40;;;18.00;100.00;94881.41;646809;216;31590;-72
2022/08/19 01:41:16;;;;;;;1.95;1.85;;;17.10;1.40;;;17.95;100.00;94888.27;645999;212;31931;-72
2022/08/19 01:43:57;;;;;;;2.00;1.77;;;17.10;1.40;;;17.97;100.00;94888.50;646882;212;31606;-72
2022/08/19 01:46:39;;;;;;;1.12;1.02;;;17.10;1.40;;;17.97;100.00;94899.03;618830;226;31851;-72
2022/08/19 01:49:20;;;;;;;1.02;0.93;;;17.10;1.40;;;17.93;100.00;94899.39;619226;222;31886;-72
2022/08/19 01:52:02;;;;;;;2.75;2.47;;;17.10;1.40;;;17.93;100.00;94901.03;646692;212;31523;-72
2022/08/19 01:54:44;;;;;;;1.62;1.35;;;17.00;1.40;;;17.93;100.00;94916.17;646528;216;31482;-72
2022/08/19 01:57:25;;;;;;;1.45;1.35;;;17.00;1.40;;;17.88;100.00;94910.36;646827;212;31674;-72
2022/08/19 02:00:09;;;;;;;2.03;1.62;;;17.00;1.40;;;17.88;100.00;94909.20;647005;216;31557;-72
2022/08/19 02:02:54;;;;;;;2.00;1.90;;;17.00;1.40;;;17.87;100.00;94890.57;646852;216;31556;-71
2022/08/19 02:05:35;;;;;;;5.30;2.22;;;17.00;1.40;;;17.88;100.00;94884.52;646611;216;31584;-72
2022/08/19 02:08:20;;;;;;;1.92;1.65;;;17.00;1.40;;;17.87;100.00;94888.80;646230;216;31912;-71
2022/08/19 02:11:04;;;;;;;1.90;1.12;;;17.00;1.40;;;17.82;100.00;94883.05;646366;216;32098;-72
2022/08/19 02:13:46;;;;;;;1.20;0.60;;;16.90;1.40;;;17.85;100.00;94885.25;645407;216;31988;-71
2022/08/19 02:16:27;;;;;;;1.73;1.45;;;17.00;1.40;;;17.81;100.00;94889.27;637261;216;31622;-72
2022/08/19 02:19:10;;;;;;;0.90;0.70;;;16.90;1.40;;;17.84;100.00;94899.12;646968;212;31522;-71
2022/08/19 02:21:51;;;;;;;1.58;1.20;;;17.00;1.40;;;17.86;100.00;94902.63;646101;216;32139;-72
2022/08/19 02:24:32;;;;;;;1.50;1.15;;;17.00;1.40;;;17.94;100.00;94903.78;646568;213;31509;-71
2022/08/19 02:27:14;;;;;;;2.10;1.10;;;17.00;1.40;;;17.94;100.00;94917.69;646262;216;31531;-72
2022/08/19 02:29:56;;;;;;;0.98;0.73;;;17.10;1.40;;;17.99;100.00;94917.66;618530;226;42827;-71
2022/08/19 02:32:38;;;;;;;2.62;2.22;;;17.10;1.40;;;18.09;100.00;94919.69;646851;216;31519;-72
2022/08/19 02:35:51;;;;;;;1.10;0.70;;;17.10;1.40;;;18.09;100.00;94918.83;640916;217;31657;-72
2022/08/19 02:38:36;;;;;;;0.87;0.87;;;17.10;1.40;;;18.12;100.00;94915.02;646899;216;31958;-72
2022/08/19 02:41:17;;;;;;;0.90;0.90;;;17.10;1.40;;;18.11;100.00;94907.25;648084;216;31528;-71
2022/08/19 02:44:00;;;;;;;2.42;1.33;;;17.20;1.40;;;18.16;100.00;94900.63;619062;226;31841;-72
2022/08/19 02:46:40;;;;;;;3.10;1.17;;;17.20;1.40;;;18.16;100.00;94891.58;645205;216;32191;-74
2022/08/19 02:49:25;;;;;;;0.60;0.47;;;17.20;1.40;;;18.09;100.00;94882.12;646263;212;31526;-73
2022/08/19 02:52:07;;;;;;;1.60;1.50;;;17.20;1.40;;;18.06;100.00;94865.80;618906;226;32307;-72
2022/08/19 02:54:49;;;;;;;0.75;0.75;;;17.10;1.40;;;18.00;100.00;94853.09;647799;212;31489;-72
2022/08/19 02:57:34;;;;;;;0.60;0.60;;;17.00;1.40;;;18.01;100.00;94847.82;645221;216;32186;-72
2022/08/19 03:00:15;;;;;;;1.70;0.80;;;17.00;1.40;;;17.97;100.00;94850.39;619076;223;31821;-72
2022/08/19 03:02:57;;;;;;;0.88;0.88;;;17.00;1.40;;;18.00;100.00;94848.40;619533;225;31785;-72
2022/08/19 03:05:39;;;;;;;1.40;1.30;;;17.00;1.40;;;17.99;100.00;94841.00;619155;226;31863;-71
2022/08/19 03:08:20;;;;;;;1.15;1.05;;;17.00;1.40;;;18.18;100.00;94828.51;646705;212;31553;-71
2022/08/19 03:11:02;;;;;;;3.12;0.88;;;17.10;1.40;;;18.10;100.00;94825.92;646790;216;42182;-71
2022/08/19 03:13:44;;;;;;;1.98;1.33;;;17.10;1.40;;;18.05;100.00;94832.39;618834;222;31854;-72
2022/08/19 03:16:25;;;;;;;1.45;0.90;;;17.00;1.40;;;18.03;100.00;94837.36;636292;212;31619;-71
2022/08/19 03:19:07;;;;;;;0.73;0.70;;;17.00;1.40;;;18.03;100.00;94847.77;646331;212;32173;-72
2022/08/19 03:21:49;;;;;;;1.00;1.00;;;17.00;1.40;;;18.10;100.00;94867.05;619479;225;31839;-72
2022/08/19 03:24:30;;;;;;;1.15;1.08;;;17.00;1.40;;;18.05;100.00;94884.20;647979;212;31554;-72
2022/08/19 03:27:13;;;;;;;1.77;1.20;;;17.10;1.40;;;18.07;100.00;94888.17;646599;212;31471;-72
2022/08/19 03:29:54;;;;;;;1.60;1.00;;;17.10;1.40;;;18.09;100.00;94895.41;645456;212;31493;-72
2022/08/19 03:32:36;;;;;;;1.75;1.37;;;17.10;1.40;;;18.11;100.00;94898.69;645250;216;31518;-72
2022/08/19 03:36:03;;;;;;;2.33;1.50;;;17.10;1.40;;;18.15;100.00;94895.13;646291;212;31549;-72
2022/08/19 03:38:50;;;;;;;1.10;0.93;;;17.10;1.40;;;18.07;100.00;94895.58;646343;216;31532;-71
2022/08/19 03:41:31;;;;;;;1.55;0.88;;;17.10;1.40;;;18.11;100.00;94891.81;647200;216;31482;-71
2022/08/19 03:44:14;;;;;;;1.80;1.00;;;17.10;1.40;;;18.14;100.00;94885.70;647105;216;31520;-71
2022/08/19 03:47:00;;;;;;;1.10;0.95;;;17.10;1.40;;;18.24;100.00;94881.75;644554;212;31949;-71
2022/08/19 03:49:42;;;;;;;1.23;0.73;;;17.20;1.40;;;18.23;100.00;94879.75;647109;215;31744;-71
2022/08/19 03:52:24;;;;;;;1.90;1.80;;;17.10;1.40;;;18.27;100.00;94881.98;646316;212;31524;-71
2022/08/19 03:55:07;;;;;;;1.10;0.70;;;17.10;1.40;;;18.28;100.00;94879.42;647614;216;31531;-71
2022/08/19 03:57:48;;;;;;;1.85;1.42;;;17.10;1.40;;;18.21;100.00;94880.72;646757;216;33129;-72
2022/08/19 04:00:30;;;;;;;1.60;0.80;;;17.10;1.40;;;18.26;100.00;94876.84;644525;216;31508;-72
2022/08/19 04:03:15;;;;;;;2.83;1.75;;;17.10;1.40;;;18.35;100.00;94872.53;645788;216;31569;-72
2022/08/19 04:05:56;;;;;;;1.77;1.67;;;17.10;1.40;;;18.29;100.00;94859.86;646198;216;31553;-71
2022/08/19 04:09:12;;;;;;;0.70;0.57;;;17.10;1.40;;;18.22;100.00;94849.72;646655;216;31598;-72
2022/08/19 04:11:54;;;;;;;5.20;2.60;;;17.10;1.40;;;18.18;100.00;94849.86;620609;222;32875;-71
2022/08/19 04:14:36;;;;;;;1.83;1.02;;;17.10;1.40;;;18.11;100.00;94853.34;647471;216;31561;-72
2022/08/19 04:17:17;;;;;;;2.70;2.10;;;17.10;1.40;;;18.09;100.00;94857.05;645256;216;32069;-73
2022/08/19 04:19:59;;;;;;;3.10;2.00;;;17.00;1.40;;;18.03;100.00;94863.03;646946;216;31507;-72
2022/08/19 04:25:15;;;;;;;2.40;1.63;;;17.00;1.40;;;18.02;100.00;94871.55;646517;212;32180;-72
2022/08/19 04:28:00;;;;;;;1.58;1.12;;;16.90;1.40;;;18.05;100.00;94882.64;618239;222;32421;-72
2022/08/19 04:35:51;;;;;;;2.10;0.90;;;17.00;1.40;;;18.11;100.00;94898.16;646882;216;31506;-72
2022/08/19 04:38:32;;;;;;;5.93;1.75;;;17.00;1.40;;;18.08;100.00;94900.40;646167;216;31570;-73
2022/08/19 04:44:02;;;;;;;0.70;0.70;;;17.10;1.40;;;18.08;100.00;94895.91;620482;226;31905;-71
2022/08/19 04:46:43;;;;;;;1.25;0.70;;;17.10;1.40;;;18.11;100.00;94905.19;647072;216;31500;-72
2022/08/19 04:49:25;;;;;;;2.17;1.98;;;17.10;1.40;;;18.16;100.00;94913.64;645952;212;31646;-72
2022/08/19 04:52:08;;;;;;;10.27;2.33;;;17.10;1.40;;;18.23;100.00;94916.09;647645;216;42527;-71
2022/08/19 04:54:48;;;;;;;0.90;0.75;;;17.20;1.40;;;18.30;100.00;94919.70;646770;212;31545;-73
2022/08/19 04:57:30;;;;;;;2.50;2.30;;;17.20;1.40;;;18.27;100.00;94918.95;646339;216;31542;-71
2022/08/19 05:00:12;;;;;;;2.37;1.60;;;17.20;1.40;;;18.27;100.00;94923.10;646934;216;32008;-72
2022/08/19 05:02:54;;;;;;;1.70;1.60;;;17.20;1.40;;;18.26;100.00;94923.44;646118;216;31904;-72
2022/08/19 05:05:38;;;;;;;1.00;1.00;;;17.20;1.40;;;18.43;100.00;94926.48;646459;212;31561;-71
2022/08/19 05:08:20;;;;;;;2.12;1.62;;;17.20;1.40;;;18.53;100.00;94936.46;645614;212;31607;-71
2022/08/19 05:11:02;;;;;;;2.40;2.20;;;17.30;1.40;;;18.58;100.00;94939.09;646566;212;31996;-72
2022/08/19 05:13:43;;;;;;;2.00;1.23;;;17.30;1.40;;;18.53;100.00;94940.25;646393;216;31586;-72
2022/08/19 05:16:28;;;;;;;3.15;2.85;;;17.30;1.40;;;18.52;100.00;94934.73;646532;216;31510;-73
2022/08/19 05:23:50;;;;;;;0.85;0.85;;;17.30;1.40;;;18.66;100.00;94942.22;647112;216;31539;-74
2022/08/19 05:26:33;;;;;;;2.67;2.28;;;17.30;1.40;;;18.58;100.00;94947.26;645803;216;31584;-73
2022/08/19 05:29:18;;;;;;;1.67;1.58;;;17.30;1.40;;;18.69;100.00;94937.50;645621;216;31568;-71
2022/08/19 05:32:00;;;;;;;1.80;1.70;;;17.40;1.40;;;18.69;100.00;94929.02;646447;216;31561;-71
2022/08/19 05:35:52;;;;;;;2.12;1.40;;;17.40;1.40;;;18.46;100.00;94911.19;645693;212;31586;-71
2022/08/19 05:38:33;;;;;;;1.65;1.55;;;17.40;1.40;;;18.45;100.00;94903.61;645577;212;31557;-72
2022/08/19 05:41:16;;;;;;;2.70;1.98;;;17.50;1.40;;;18.62;100.00;94901.69;646901;216;31554;-71
2022/08/19 05:43:59;;;;;;;3.17;2.87;;;17.50;1.40;;;18.66;100.00;94907.54;647029;216;32230;-71
2022/08/19 05:46:37;;;;;;;2.87;1.73;;;17.50;1.40;;;18.68;100.00;94903.41;644268;220;23572;-72
2022/08/19 05:49:17;;;;;;;3.20;2.12;;;17.60;1.40;;;18.76;100.00;94900.41;646552;216;31595;-71
2022/08/19 05:51:59;;;;;;;2.80;2.40;;;17.60;1.40;;;18.84;100.00;94905.19;617955;223;31897;-70
2022/08/19 05:54:41;;;;;;;1.80;1.20;;;17.60;1.40;;;18.91;100.00;94897.21;646253;216;33284;-70
2022/08/19 05:57:24;;;;;;;2.90;1.80;;;17.60;1.40;;;18.80;100.00;94901.68;646909;216;31508;-70
2022/08/19 06:00:14;;;;;;;3.08;2.45;;;17.60;1.40;;;18.81;100.00;94901.80;645393;212;32145;-69
2022/08/19 06:02:59;;;;;;;3.20;1.70;;;17.60;1.40;;;18.86;100.00;94905.00;647541;216;31670;-69
2022/08/19 06:05:38;;;;;;;2.80;1.83;;;17.60;1.40;;;18.84;100.00;94906.75;646123;212;31538;-70
2022/08/19 06:08:19;;;;;;;2.80;2.25;;;17.70;1.40;;;18.99;100.00;94909.23;645952;216;31677;-69
2022/08/19 06:11:16;;;;;;;6.55;1.65;;;17.80;1.40;;;19.12;100.00;94911.63;646419;212;31559;-70
2022/08/19 06:13:59;;;;;;;3.58;1.90;;;17.90;1.40;;;19.35;100.00;94915.48;646630;216;31721;-70
2022/08/19 06:16:45;;;;;;;3.80;1.70;;;18.00;1.40;;;19.21;100.00;94923.93;634503;212;31681;-70
2022/08/19 06:19:29;;;;;;;2.90;2.10;;;17.80;1.40;;;19.19;100.00;94934.34;618479;222;31873;-69
2022/08/19 06:22:14;;;;;;;4.07;2.83;;;17.80;1.40;;;19.12;100.00;94937.92;644415;212;32389;-70
2022/08/19 06:24:56;;;;;;;3.08;2.30;;;17.80;1.40;;;19.26;100.00;94946.31;646473;216;31558;-69
2022/08/19 06:27:40;;;;;;;5.43;3.20;;;17.80;1.40;;;19.18;100.00;94946.10;647943;216;31591;-70
2022/08/19 06:30:21;;;;;;;2.03;1.60;;;17.70;1.40;;;18.97;100.00;94945.98;645576;216;31601;-71
2022/08/19 06:35:52;;;;;;;2.50;2.30;;;17.70;1.40;;;18.99;100.00;94947.81;646392;216;31662;-72
2022/08/19 06:38:33;;;;;;;3.60;2.60;;;17.80;1.40;;;18.89;100.00;94943.66;645562;212;31490;-73
2022/08/19 06:41:15;;;;;;;2.72;2.15;;;17.70;1.40;;;18.76;100.00;94946.09;646157;216;31571;-70
2022/08/19 06:43:57;;;;;;;2.70;2.00;;;17.70;1.40;;;18.79;100.00;94945.28;646591;212;31549;-71
2022/08/19 06:46:38;;;;;;;2.85;2.60;;;17.70;1.40;;;18.84;100.00;94937.16;647236;216;31522;-71
2022/08/19 06:49:23;;;;;;;3.45;3.15;;;17.70;1.40;;;18.76;100.00;94941.03;646133;212;32116;-70
2022/08/19 06:52:05;;;;;;;3.35;2.42;;;17.70;1.40;;;18.89;100.00;94941.20;645590;216;31610;-70
2022/08/19 06:54:47;;;;;;;4.93;2.40;;;17.80;1.40;;;19.10;100.00;94935.67;646516;216;31562;-70
2022/08/19 06:57:32;;;;;;;3.05;2.00;;;17.90;1.40;;;19.30;100.00;94935.51;645915;216;31578;-70
2022/08/19 07:00:13;;;;;;;4.65;2.65;;;18.00;1.40;;;19.35;100.00;94930.24;646173;212;31541;-71
2022/08/19 07:02:55;;;;;;;3.90;2.33;;;18.10;1.40;;;19.51;100.00;94927.02;647212;216;31590;-71
2022/08/19 07:05:39;;;;;;;4.30;3.87;;;18.20;1.40;;;19.53;100.00;94927.09;646976;212;31559;-70
2022/08/19 07:08:21;;;;;;;3.15;2.67;;;18.30;1.40;;;19.72;100.00;94929.25;645453;212;42485;-70
2022/08/19 07:11:03;;;;;;;3.72;2.80;;;18.30;1.40;;;19.64;100.00;94924.52;646392;216;31592;-71
2022/08/19 07:13:44;;;;;;;4.25;3.05;;;18.30;1.40;;;19.67;100.00;94918.59;647432;216;31566;-71
2022/08/19 07:16:27;;;;;;;4.15;2.78;;;18.30;1.40;;;19.78;100.00;94913.28;638056;214;31822;-70
2022/08/19 07:19:10;;;;;;;3.37;3.07;;;18.40;1.40;;;19.80;100.00;94915.78;646224;216;31744;-71
2022/08/19 07:21:52;;;;;;;5.00;4.10;;;18.50;1.40;;;19.82;100.00;94918.14;646612;216;31550;-71
2022/08/19 07:24:34;;;;;;;4.37;2.43;;;18.50;1.40;;;19.65;100.00;94910.28;645846;212;31536;-70
2022/08/19 07:27:16;;;;;;;4.97;2.78;;;18.30;1.40;;;19.61;100.00;94904.52;619142;226;32238;-71
2022/08/19 07:29:58;;;;;;;5.75;3.67;;;18.30;1.40;;;19.60;100.00;94903.50;646153;216;31733;-70
2022/08/19 07:32:39;;;;;;;5.18;4.75;;;18.20;1.40;;;19.49;100.00;94896.43;646397;216;31528;-70
2022/08/19 07:35:51;;;;;;;9.07;4.85;;;18.30;1.40;;;19.60;100.00;94892.81;646160;212;31755;-71
2022/08/19 07:38:32;;;;;;;6.45;3.22;;;18.50;1.40;;;19.70;100.00;94897.10;647458;216;42175;-70
2022/08/19 07:41:14;;;;;;;10.50;4.97;;;18.50;1.40;;;19.67;100.00;94894.83;646842;216;42181;-72
2022/08/19 07:43:56;;;;;;;4.50;2.80;;;18.60;1.40;;;19.63;100.00;94897.97;618241;226;32068;-70
2022/08/19 07:46:37;;;;;;;14.45;4.25;;;18.50;1.40;;;20.13;100.00;94898.88;646849;216;31584;-71
2022/08/19 07:49:19;;;;;;;5.85;3.85;;;18.90;1.40;;;20.01;100.00;94899.77;646156;216;31552;-70
2022/08/19 07:52:01;;;;;;;7.35;4.50;;;18.90;1.40;;;19.97;100.00;94903.20;647909;212;34236;-70
2022/08/19 07:54:42;;;;;;;8.73;3.47;;;18.80;1.40;;;19.95;100.00;94903.39;645928;216;31534;-71
2022/08/19 07:57:24;;;;;;;6.03;2.87;;;18.90;1.40;;;20.44;100.00;94907.61;647357;212;31556;-71
2022/08/19 08:00:07;;;;;;;7.93;5.00;;;19.20;1.40;;;20.41;100.00;94916.98;646541;216;43565;-71
2022/08/19 08:02:49;;;;;;;5.60;3.67;;;18.90;1.40;;;20.53;100.00;94918.82;646922;212;31611;-71
2022/08/19 08:11:10;;;;;;;7.97;4.45;;;18.90;1.40;;;20.19;100.00;94916.02;646099;215;31769;-71
2022/08/19 08:13:51;;;;;;;7.35;3.67;;;18.80;1.40;;;20.14;100.00;94919.51;645225;216;31600;-70
2022/08/19 08:16:34;;;;;;;7.90;4.37;;;18.70;1.40;;;19.95;100.00;94920.31;636240;216;32001;-71
2022/08/19 08:19:16;;;;;;;4.68;3.50;;;18.50;1.40;;;19.71;100.00;94925.44;646322;212;31540;-72
2022/08/19 08:22:00;;;;;;;5.10;3.80;;;18.30;1.40;;;19.61;100.00;94931.41;647348;212;31533;-71
2022/08/19 08:24:42;;;;;;;7.45;3.10;;;18.20;1.40;;;19.31;100.00;94930.13;619500;222;31900;-71
2022/08/19 08:27:24;;;;;;;5.43;3.87;;;18.10;1.40;;;19.24;100.00;94935.32;645845;212;32318;-70
2022/08/19 08:30:09;;;;;;;7.18;4.80;;;18.00;1.40;;;19.34;100.00;94930.75;646191;216;43200;-70
2022/08/19 08:32:49;;;;;;;7.10;3.60;;;18.10;1.40;;;19.22;100.00;94927.05;646439;212;32536;-71
2022/08/19 08:35:54;;;;;;;6.40;4.12;;;18.00;1.40;;;19.24;100.00;94929.05;645973;212;31747;-71
2022/08/19 08:38:36;;;;;;;6.15;4.22;;;18.10;1.40;;;19.41;100.00;94926.47;646558;212;32190;-70
2022/08/19 08:41:29;;;;;;;6.85;4.68;;;18.10;1.40;;;19.34;100.00;94935.16;619901;226;42555;-70
2022/08/19 08:44:14;;;;;;;4.60;3.70;;;18.10;1.40;;;19.32;100.00;94939.23;645672;216;42220;-72
2022/08/19 08:46:56;;;;;;;7.95;5.07;;;18.10;1.40;;;19.38;100.00;94939.33;647366;212;32797;-70
2022/08/19 08:49:55;;;;;;;12.77;4.80;;;18.10;1.40;;;19.22;100.00;94939.46;646364;216;42155;-71
2022/08/19 08:52:37;;;;;;;5.50;5.00;;;18.00;1.40;;;19.10;100.00;94947.34;646504;216;31527;-70
2022/08/19 08:55:19;;;;;;;7.67;3.80;;;18.00;1.40;;;19.06;100.00;94945.86;646713;216;32037;-71
2022/08/19 08:58:15;;;;;;;5.32;4.35;;;18.00;1.40;;;19.12;100.00;94946.59;646139;212;42868;-70
2022/08/19 09:00:54;;;;;;;9.60;4.07;;;18.00;1.40;;;19.06;100.00;94950.72;645353;216;31759;-70
2022/08/19 09:03:39;;;;;;;8.13;4.00;;;17.90;1.40;;;19.04;100.00;94954.66;647023;212;31903;-70
2022/08/19 09:06:38;;;;;;;3.53;2.87;;;17.80;1.40;;;18.96;100.00;94956.34;647384;212;31594;-71
2022/08/19 09:09:30;;;;;;;7.50;2.75;;;17.80;1.40;;;18.93;100.00;94957.41;646554;216;31583;-70
2022/08/19 09:12:32;;;;;;;4.28;3.30;;;17.80;1.40;;;18.93;100.00;94957.48;648082;216;32574;-71
2022/08/19 09:15:14;;;;;;;3.47;3.17;;;17.70;1.40;;;18.93;100.00;94957.73;646532;212;31579;-71
2022/08/19 09:17:56;;;;;;;4.97;2.97;;;17.70;1.40;;;18.92;100.00;94962.31;619673;226;42800;-70
2022/08/19 09:20:37;;;;;;;5.87;4.20;;;17.80;1.40;;;18.95;100.00;94952.80;646617;216;31543;-71
2022/08/19 09:23:19;;;;;;;4.57;3.80;;;17.80;1.40;;;18.86;100.00;94953.83;647978;216;31539;-70
2022/08/19 09:26:01;;;;;;;7.20;4.30;;;17.80;1.40;;;18.77;100.00;94961.30;646781;216;31638;-70
2022/08/19 09:28:43;;;;;;;6.87;4.10;;;17.80;1.40;;;18.88;100.00;94960.41;618625;222;42535;-71
2022/08/19 09:31:24;;;;;;;6.50;3.15;;;17.90;1.40;;;18.99;100.00;94957.80;645402;216;31543;-70
2022/08/19 09:35:52;;;;;;;4.28;3.00;;;18.00;1.40;;;19.01;100.00;94959.50;619486;226;32111;-70
2022/08/19 09:38:34;;;;;;;2.25;2.00;;;18.00;1.40;;;19.08;100.00;94956.30;647492;212;31527;-71
2022/08/19 09:41:15;;;;;;;2.28;2.08;;;18.10;1.40;;;18.96;100.00;94958.61;646254;212;32038;-71
2022/08/19 09:43:57;;;;;;;8.60;5.05;;;18.10;1.40;;;19.07;100.00;94959.70;646104;216;31582;-71
2022/08/19 09:46:39;;;;;;;3.37;2.12;;;18.10;1.40;;;19.15;100.00;94961.77;645971;216;31532;-72
2022/08/19 09:49:21;;;;;;;3.37;2.12;;;18.10;1.40;;;19.12;100.00;94959.45;647243;216;31562;-71
2022/08/19 09:52:07;;;;;;;4.20;3.30;;;18.20;1.40;;;18.97;100.00;94964.61;646409;216;31550;-73
2022/08/19 09:54:48;;;;;;;4.12;3.33;;;18.10;1.40;;;18.93;100.00;94967.70;646796;212;31663;-71
2022/08/19 09:57:30;;;;;;;4.22;3.67;;;18.20;1.40;;;18.90;100.00;94967.94;646989;212;31520;-72
2022/08/19 10:00:12;;;;;;;6.20;4.45;;;18.20;1.40;;;19.03;100.00;94962.08;645827;212;31526;-71
2022/08/19 10:02:53;;;;;;;4.87;4.35;;;18.30;1.40;;;19.30;100.00;94963.80;646423;212;31537;-71
2022/08/19 10:08:23;;;;;;;3.05;2.47;;;18.60;1.40;;;19.36;100.00;94969.33;647314;212;31546;-72
2022/08/19 10:11:05;;;;;;;2.97;2.67;;;18.50;1.40;;;19.35;100.00;94970.78;646576;212;31645;-71
2022/08/19 10:13:46;;;;;;;4.40;3.70;;;18.40;1.40;;;19.32;100.00;94968.31;646700;216;31537;-72
2022/08/19 10:16:28;;;;;;;5.40;3.30;;;18.30;1.40;;;19.23;100.00;94960.27;635769;212;31751;-71
2022/08/19 10:19:10;;;;;;;5.28;2.83;;;18.30;1.40;;;19.20;100.00;94960.88;647501;216;31537;-72
2022/08/19 10:21:52;;;;;;;2.72;1.87;;;18.20;1.40;;;19.00;100.00;94958.56;646724;212;31657;-71
2022/08/19 10:24:34;;;;;;;3.62;3.22;;;18.20;1.40;;;19.07;100.00;94954.42;646787;212;32355;-71
2022/08/19 10:27:17;;;;;;;4.20;3.40;;;18.30;1.40;;;18.94;100.00;94958.96;646411;216;31630;-71
2022/08/19 10:29:59;;;;;;;2.08;1.98;;;18.10;1.40;;;18.93;100.00;94953.48;645557;212;31554;-71
2022/08/19 10:32:40;;;;;;;3.60;2.20;;;18.20;1.40;;;19.03;100.00;94953.64;646011;216;31562;-71
2022/08/19 10:35:59;;;;;;;1.35;1.27;;;18.30;1.40;;;19.31;100.00;94951.00;647455;216;31564;-71
2022/08/19 10:38:43;;;;;;;3.10;2.55;;;18.60;1.40;;;19.48;100.00;94953.23;646065;212;31512;-71
2022/08/19 10:41:24;;;;;;;2.10;1.00;;;19.00;1.40;;;19.60;100.00;94957.08;646725;212;31523;-71
2022/08/19 10:44:07;;;;;;;3.92;3.53;;;18.90;1.40;;;19.80;100.00;94956.43;619484;226;31878;-72
2022/08/19 10:46:49;;;;;;;1.50;1.27;;;18.90;1.40;;;19.88;100.00;94959.39;644949;216;31473;-70
2022/08/19 10:49:31;;;;;;;3.60;2.60;;;19.00;1.40;;;19.99;100.00;94958.91;647338;216;42179;-71
2022/08/19 10:57:52;;;;;;;3.40;1.20;;;19.10;1.40;;;19.78;100.00;94951.66;616386;226;32929;-72
2022/08/19 11:00:34;;;;;;;2.27;1.37;;;19.30;1.40;;;20.25;100.00;94949.91;646771;212;31600;-71
2022/08/19 11:03:15;;;;;;;3.33;1.48;;;19.90;1.40;;;20.53;100.00;94946.92;646955;216;32213;-71
2022/08/19 11:06:01;;;;;;;2.33;2.12;;;20.10;1.40;;;20.18;100.00;94954.59;646903;212;31540;-71
2022/08/19 11:08:45;;;;;;;2.97;1.75;;;19.50;1.40;;;20.13;100.00;94954.17;647823;216;42236;-71
2022/08/19 11:11:24;;;;;;;1.90;1.40;;;19.80;1.40;;;20.44;100.00;94947.47;647167;212;42148;-73
2022/08/19 11:14:06;;;;;;;1.10;0.80;;;20.20;1.40;;;20.59;100.00;94944.31;647430;216;31566;-71
2022/08/19 11:16:48;;;;;;;2.22;1.65;;;20.10;1.40;;;20.82;100.00;94953.66;645328;216;31561;-71
2022/08/19 11:19:29;;;;;;;1.70;1.10;;;20.10;1.40;;;20.67;100.00;94952.72;645951;212;32087;-70
2022/08/19 11:22:11;;;;;;;1.33;0.73;;;19.80;1.40;;;20.99;100.00;94952.77;645744;216;31566;-71
2022/08/19 11:24:53;;;;;;;1.65;0.93;;;20.00;1.40;;;21.13;100.00;94950.41;646827;212;31524;-72
2022/08/19 11:30:12;;;;;;;0.80;0.47;;;20.10;1.40;;;21.35;100.00;94954.72;646557;216;31722;-71
2022/08/19 11:32:54;;;;;;;0.50;0.47;;;20.00;1.40;;;21.12;100.00;94958.57;645115;212;31905;-71
2022/08/19 11:35:51;;;;;;;0.70;0.50;;;20.00;1.40;;;21.04;100.00;94954.13;647313;216;32505;-71
2022/08/19 11:38:36;;;;;;;1.40;0.62;;;20.20;1.40;;;21.39;100.00;94959.72;647004;215;31473;-71
2022/08/19 11:41:18;;;;;;;0.60;0.40;;;20.40;1.40;;;21.36;100.00;94961.56;646671;213;31504;-70
2022/08/19 11:43:59;;;;;;;0.68;0.40;;;20.40;1.40;;;21.30;100.00;94969.16;646310;216;31497;-72
2022/08/19 11:46:41;;;;;;;0.90;0.57;;;20.30;1.40;;;21.13;100.00;94965.39;619795;222;31839;-71
2022/08/19 11:51:58;;;;;;;0.50;0.30;;;20.20;1.40;;;21.67;100.00;94971.15;620010;222;32007;-71
2022/08/19 11:54:41;;;;;;;0.70;0.40;;;20.40;1.40;;;22.27;100.00;94970.05;645989;216;31492;-70
2022/08/19 11:57:23;;;;;;;0.60;0.50;;;21.30;1.40;;;23.05;100.00;94968.30;647722;212;31464;-72
2022/08/19 12:00:07;;;;;;;0.60;0.40;;;22.20;1.40;;;23.41;100.00;94972.56;646851;216;31475;-71
2022/08/19 12:02:51;;;;;;;0.90;0.62;;;22.10;1.40;;;23.87;100.00;94970.39;646534;216;31479;-71
2022/08/19 12:05:32;;;;;;;0.50;0.40;;;22.20;1.40;;;23.37;100.00;94979.91;645639;212;42101;-71
2022/08/19 12:08:15;;;;;;;1.00;0.60;;;21.40;1.40;;;22.85;100.00;94978.67;646620;216;35918;-71
2022/08/19 12:10:56;;;;;;;1.20;0.70;;;21.00;1.40;;;22.50;100.00;94983.63;646240;216;31637;-71